Terminal Aerodrome Forecast
Issued by NWS Cleveland, OH

Home | Current Version | Previous Version | Graphics & Text | Print | Product List | Glossary On
Versions: 1 2 3 4 5 6 7 8 9 10 11 12 13 14 15 16 17 18
000
FTUS41 KCLE 310805 AAA
TAFERI
TAF AMD
KERI 310805Z 3108/0106 04015G22KT 6SM -SHRA BR OVC006
     FM311500 05015G25KT 2SM -SHRA BR OVC007
     FM311800 06020G30KT 2SM RA OVC005=

USA.gov is the U.S. government's official web portal to all federal, state and local government web resources and services.